sensor_id;sensor_type;location;lat;lon;timestamp;P1;durP1;ratioP1;P2;durP2;ratioP2
56718;SDS011;42597;40.636;0.278;2024-01-10T00:01:42;7.78;;;3.65;;
56718;SDS011;42597;40.636;0.278;2024-01-10T00:04:08;8.05;;;3.90;;
56718;SDS011;42597;40.636;0.278;2024-01-10T00:06:33;7.68;;;4.05;;
56718;SDS011;42597;40.636;0.278;2024-01-10T00:08:59;10.60;;;6.32;;
56718;SDS011;42597;40.636;0.278;2024-01-10T00:11:25;6.03;;;3.30;;
56718;SDS011;42597;40.636;0.278;2024-01-10T00:13:50;7.97;;;3.88;;
56718;SDS011;42597;40.636;0.278;2024-01-10T00:16:16;7.38;;;4.57;;
56718;SDS011;42597;40.636;0.278;2024-01-10T00:18:41;7.40;;;4.03;;
56718;SDS011;42597;40.636;0.278;2024-01-10T00:21:07;7.63;;;4.32;;
56718;SDS011;42597;40.636;0.278;2024-01-10T00:23:33;7.90;;;3.70;;
56718;SDS011;42597;40.636;0.278;2024-01-10T00:25:58;9.52;;;4.40;;
56718;SDS011;42597;40.636;0.278;2024-01-10T00:28:24;7.82;;;4.20;;
56718;SDS011;42597;40.636;0.278;2024-01-10T00:30:50;9.88;;;4.22;;
56718;SDS011;42597;40.636;0.278;2024-01-10T00:33:16;7.90;;;4.15;;
56718;SDS011;42597;40.636;0.278;2024-01-10T00:35:41;7.57;;;4.28;;
56718;SDS011;42597;40.636;0.278;2024-01-10T00:38:07;10.88;;;7.05;;
56718;SDS011;42597;40.636;0.278;2024-01-10T00:40:32;10.98;;;6.93;;
56718;SDS011;42597;40.636;0.278;2024-01-10T00:42:58;7.43;;;4.15;;
56718;SDS011;42597;40.636;0.278;2024-01-10T00:45:24;7.60;;;4.30;;
56718;SDS011;42597;40.636;0.278;2024-01-10T00:47:49;6.97;;;3.47;;
56718;SDS011;42597;40.636;0.278;2024-01-10T00:50:15;6.53;;;3.70;;
56718;SDS011;42597;40.636;0.278;2024-01-10T00:52:41;6.82;;;3.47;;
56718;SDS011;42597;40.636;0.278;2024-01-10T00:55:09;7.40;;;3.45;;
56718;SDS011;42597;40.636;0.278;2024-01-10T00:57:35;8.25;;;4.32;;
56718;SDS011;42597;40.636;0.278;2024-01-10T01:00:00;5.63;;;3.60;;
56718;SDS011;42597;40.636;0.278;2024-01-10T01:02:26;6.65;;;3.15;;
56718;SDS011;42597;40.636;0.278;2024-01-10T01:04:52;10.00;;;4.68;;
56718;SDS011;42597;40.636;0.278;2024-01-10T01:07:18;9.40;;;4.63;;
56718;SDS011;42597;40.636;0.278;2024-01-10T01:09:43;5.57;;;2.85;;
56718;SDS011;42597;40.636;0.278;2024-01-10T01:12:09;5.95;;;3.50;;
56718;SDS011;42597;40.636;0.278;2024-01-10T01:14:35;5.57;;;3.70;;
56718;SDS011;42597;40.636;0.278;2024-01-10T01:17:00;6.35;;;3.22;;
56718;SDS011;42597;40.636;0.278;2024-01-10T01:19:26;7.10;;;3.35;;
56718;SDS011;42597;40.636;0.278;2024-01-10T01:21:51;8.45;;;3.97;;
56718;SDS011;42597;40.636;0.278;2024-01-10T01:24:17;6.15;;;3.20;;
56718;SDS011;42597;40.636;0.278;2024-01-10T01:26:42;7.40;;;2.90;;
56718;SDS011;42597;40.636;0.278;2024-01-10T01:29:08;5.03;;;2.90;;
56718;SDS011;42597;40.636;0.278;2024-01-10T01:31:34;6.43;;;2.65;;
56718;SDS011;42597;40.636;0.278;2024-01-10T01:34:00;6.75;;;3.45;;
56718;SDS011;42597;40.636;0.278;2024-01-10T01:36:25;5.85;;;3.08;;
56718;SDS011;42597;40.636;0.278;2024-01-10T01:38:51;4.97;;;2.70;;
56718;SDS011;42597;40.636;0.278;2024-01-10T01:41:16;5.47;;;3.20;;
56718;SDS011;42597;40.636;0.278;2024-01-10T01:43:43;10.18;;;4.00;;
56718;SDS011;42597;40.636;0.278;2024-01-10T01:46:08;6.22;;;3.15;;
56718;SDS011;42597;40.636;0.278;2024-01-10T01:48:34;5.68;;;3.22;;
56718;SDS011;42597;40.636;0.278;2024-01-10T01:51:02;5.88;;;2.67;;
56718;SDS011;42597;40.636;0.278;2024-01-10T01:53:30;6.63;;;4.03;;
56718;SDS011;42597;40.636;0.278;2024-01-10T01:55:57;5.40;;;2.88;;
56718;SDS011;42597;40.636;0.278;2024-01-10T01:58:24;9.48;;;4.32;;
56718;SDS011;42597;40.636;0.278;2024-01-10T02:00:50;7.65;;;4.40;;
56718;SDS011;42597;40.636;0.278;2024-01-10T02:03:16;4.22;;;2.95;;
56718;SDS011;42597;40.636;0.278;2024-01-10T02:05:42;4.32;;;2.58;;
56718;SDS011;42597;40.636;0.278;2024-01-10T02:08:08;4.70;;;2.78;;
56718;SDS011;42597;40.636;0.278;2024-01-10T02:10:34;5.53;;;2.90;;
56718;SDS011;42597;40.636;0.278;2024-01-10T02:13:00;7.22;;;3.72;;
56718;SDS011;42597;40.636;0.278;2024-01-10T02:15:26;5.78;;;2.92;;
56718;SDS011;42597;40.636;0.278;2024-01-10T02:17:52;5.63;;;2.78;;
56718;SDS011;42597;40.636;0.278;2024-01-10T02:20:18;6.70;;;3.65;;
56718;SDS011;42597;40.636;0.278;2024-01-10T02:22:44;4.55;;;2.67;;
56718;SDS011;42597;40.636;0.278;2024-01-10T02:25:10;7.55;;;4.28;;
56718;SDS011;42597;40.636;0.278;2024-01-10T02:27:36;6.47;;;3.10;;
56718;SDS011;42597;40.636;0.278;2024-01-10T02:30:03;8.98;;;6.22;;
56718;SDS011;42597;40.636;0.278;2024-01-10T02:32:29;6.35;;;3.33;;
56718;SDS011;42597;40.636;0.278;2024-01-10T02:34:55;8.27;;;4.90;;
56718;SDS011;42597;40.636;0.278;2024-01-10T02:37:21;6.95;;;3.90;;
56718;SDS011;42597;40.636;0.278;2024-01-10T02:39:46;9.35;;;6.25;;
56718;SDS011;42597;40.636;0.278;2024-01-10T02:42:12;7.82;;;4.40;;
56718;SDS011;42597;40.636;0.278;2024-01-10T02:44:38;6.60;;;3.50;;
56718;SDS011;42597;40.636;0.278;2024-01-10T02:47:03;9.10;;;6.30;;
56718;SDS011;42597;40.636;0.278;2024-01-10T02:49:30;7.18;;;4.70;;
56718;SDS011;42597;40.636;0.278;2024-01-10T02:51:56;6.60;;;4.60;;
56718;SDS011;42597;40.636;0.278;2024-01-10T02:54:22;7.05;;;4.45;;
56718;SDS011;42597;40.636;0.278;2024-01-10T02:56:47;6.38;;;3.55;;
56718;SDS011;42597;40.636;0.278;2024-01-10T02:59:13;6.75;;;4.00;;
56718;SDS011;42597;40.636;0.278;2024-01-10T03:01:38;8.30;;;5.40;;
56718;SDS011;42597;40.636;0.278;2024-01-10T03:04:04;7.65;;;4.50;;
56718;SDS011;42597;40.636;0.278;2024-01-10T03:06:29;8.70;;;5.22;;
56718;SDS011;42597;40.636;0.278;2024-01-10T03:08:55;9.35;;;5.20;;
56718;SDS011;42597;40.636;0.278;2024-01-10T03:11:21;8.77;;;5.78;;
56718;SDS011;42597;40.636;0.278;2024-01-10T03:13:47;8.95;;;6.28;;
56718;SDS011;42597;40.636;0.278;2024-01-10T03:16:13;4.70;;;2.75;;
56718;SDS011;42597;40.636;0.278;2024-01-10T03:18:39;6.65;;;4.53;;
56718;SDS011;42597;40.636;0.278;2024-01-10T03:21:05;5.80;;;3.45;;
56718;SDS011;42597;40.636;0.278;2024-01-10T03:23:30;6.80;;;3.22;;
56718;SDS011;42597;40.636;0.278;2024-01-10T03:25:56;7.32;;;4.53;;
56718;SDS011;42597;40.636;0.278;2024-01-10T03:28:22;9.80;;;5.43;;
56718;SDS011;42597;40.636;0.278;2024-01-10T03:30:48;14.60;;;8.98;;
56718;SDS011;42597;40.636;0.278;2024-01-10T03:33:14;16.33;;;10.73;;
56718;SDS011;42597;40.636;0.278;2024-01-10T03:35:41;7.50;;;5.28;;
56718;SDS011;42597;40.636;0.278;2024-01-10T03:38:07;8.32;;;3.88;;
56718;SDS011;42597;40.636;0.278;2024-01-10T03:40:33;6.50;;;3.47;;
56718;SDS011;42597;40.636;0.278;2024-01-10T03:42:58;5.93;;;3.50;;
56718;SDS011;42597;40.636;0.278;2024-01-10T03:45:24;7.45;;;3.88;;
56718;SDS011;42597;40.636;0.278;2024-01-10T03:47:50;5.25;;;3.42;;
56718;SDS011;42597;40.636;0.278;2024-01-10T03:50:19;7.55;;;4.47;;
56718;SDS011;42597;40.636;0.278;2024-01-10T03:52:45;7.40;;;3.85;;
56718;SDS011;42597;40.636;0.278;2024-01-10T03:55:11;7.20;;;5.32;;
56718;SDS011;42597;40.636;0.278;2024-01-10T03:57:41;9.63;;;5.40;;
56718;SDS011;42597;40.636;0.278;2024-01-10T04:00:10;6.60;;;4.05;;
56718;SDS011;42597;40.636;0.278;2024-01-10T04:02:36;5.82;;;4.00;;
56718;SDS011;42597;40.636;0.278;2024-01-10T04:05:06;8.02;;;5.63;;
56718;SDS011;42597;40.636;0.278;2024-01-10T04:07:33;8.82;;;6.15;;
56718;SDS011;42597;40.636;0.278;2024-01-10T04:09:59;13.65;;;9.35;;
56718;SDS011;42597;40.636;0.278;2024-01-10T04:12:24;14.48;;;8.35;;
56718;SDS011;42597;40.636;0.278;2024-01-10T04:14:50;12.90;;;9.25;;
56718;SDS011;42597;40.636;0.278;2024-01-10T04:17:15;9.68;;;6.70;;
56718;SDS011;42597;40.636;0.278;2024-01-10T04:19:41;11.32;;;8.25;;
56718;SDS011;42597;40.636;0.278;2024-01-10T04:22:06;11.02;;;7.40;;
56718;SDS011;42597;40.636;0.278;2024-01-10T04:24:32;10.80;;;8.60;;
56718;SDS011;42597;40.636;0.278;2024-01-10T04:26:57;12.15;;;7.45;;
56718;SDS011;42597;40.636;0.278;2024-01-10T04:29:23;12.65;;;7.65;;
56718;SDS011;42597;40.636;0.278;2024-01-10T04:31:49;11.93;;;7.95;;
56718;SDS011;42597;40.636;0.278;2024-01-10T04:34:15;14.18;;;8.93;;
56718;SDS011;42597;40.636;0.278;2024-01-10T04:36:40;11.73;;;9.00;;
56718;SDS011;42597;40.636;0.278;2024-01-10T04:39:06;9.10;;;7.30;;
56718;SDS011;42597;40.636;0.278;2024-01-10T04:41:31;9.57;;;6.00;;
56718;SDS011;42597;40.636;0.278;2024-01-10T04:43:57;10.65;;;8.27;;
56718;SDS011;42597;40.636;0.278;2024-01-10T04:46:22;9.60;;;7.13;;
56718;SDS011;42597;40.636;0.278;2024-01-10T04:48:48;5.80;;;3.65;;
56718;SDS011;42597;40.636;0.278;2024-01-10T04:51:14;7.95;;;5.28;;
56718;SDS011;42597;40.636;0.278;2024-01-10T04:53:40;8.60;;;5.82;;
56718;SDS011;42597;40.636;0.278;2024-01-10T04:56:05;11.00;;;8.45;;
56718;SDS011;42597;40.636;0.278;2024-01-10T04:58:31;9.68;;;5.70;;
56718;SDS011;42597;40.636;0.278;2024-01-10T05:00:58;12.10;;;6.38;;
56718;SDS011;42597;40.636;0.278;2024-01-10T05:03:23;10.20;;;5.85;;
56718;SDS011;42597;40.636;0.278;2024-01-10T05:05:49;9.88;;;6.72;;
56718;SDS011;42597;40.636;0.278;2024-01-10T05:08:14;8.88;;;5.50;;
56718;SDS011;42597;40.636;0.278;2024-01-10T05:10:40;9.23;;;7.40;;
56718;SDS011;42597;40.636;0.278;2024-01-10T05:13:06;8.32;;;5.72;;
56718;SDS011;42597;40.636;0.278;2024-01-10T05:15:32;6.50;;;4.25;;
56718;SDS011;42597;40.636;0.278;2024-01-10T05:17:57;7.47;;;4.70;;
56718;SDS011;42597;40.636;0.278;2024-01-10T05:20:23;5.75;;;3.10;;
56718;SDS011;42597;40.636;0.278;2024-01-10T05:22:48;7.03;;;4.00;;
56718;SDS011;42597;40.636;0.278;2024-01-10T05:25:14;4.85;;;3.15;;
56718;SDS011;42597;40.636;0.278;2024-01-10T05:27:43;6.68;;;3.90;;
56718;SDS011;42597;40.636;0.278;2024-01-10T05:30:09;6.07;;;4.20;;
56718;SDS011;42597;40.636;0.278;2024-01-10T05:32:37;7.38;;;3.00;;
56718;SDS011;42597;40.636;0.278;2024-01-10T05:35:03;5.57;;;3.00;;
56718;SDS011;42597;40.636;0.278;2024-01-10T05:37:30;4.82;;;3.13;;
56718;SDS011;42597;40.636;0.278;2024-01-10T05:39:55;10.05;;;4.32;;
56718;SDS011;42597;40.636;0.278;2024-01-10T05:42:21;5.10;;;3.15;;
56718;SDS011;42597;40.636;0.278;2024-01-10T05:44:47;8.85;;;4.60;;
56718;SDS011;42597;40.636;0.278;2024-01-10T05:47:12;4.97;;;2.85;;
56718;SDS011;42597;40.636;0.278;2024-01-10T05:49:38;5.68;;;3.08;;
56718;SDS011;42597;40.636;0.278;2024-01-10T05:52:04;7.07;;;3.40;;
56718;SDS011;42597;40.636;0.278;2024-01-10T05:54:29;5.55;;;2.88;;
56718;SDS011;42597;40.636;0.278;2024-01-10T05:56:55;6.13;;;3.42;;
56718;SDS011;42597;40.636;0.278;2024-01-10T05:59:21;6.95;;;3.90;;
56718;SDS011;42597;40.636;0.278;2024-01-10T06:01:46;9.55;;;3.55;;
56718;SDS011;42597;40.636;0.278;2024-01-10T06:04:12;5.25;;;2.95;;
56718;SDS011;42597;40.636;0.278;2024-01-10T06:06:37;4.68;;;2.60;;
56718;SDS011;42597;40.636;0.278;2024-01-10T06:09:03;5.50;;;3.33;;
56718;SDS011;42597;40.636;0.278;2024-01-10T06:11:28;4.80;;;3.03;;
56718;SDS011;42597;40.636;0.278;2024-01-10T06:13:54;5.30;;;2.95;;
56718;SDS011;42597;40.636;0.278;2024-01-10T06:16:20;5.03;;;2.97;;
56718;SDS011;42597;40.636;0.278;2024-01-10T06:18:45;5.20;;;2.47;;
56718;SDS011;42597;40.636;0.278;2024-01-10T06:21:11;4.35;;;2.45;;
56718;SDS011;42597;40.636;0.278;2024-01-10T06:23:37;4.88;;;2.63;;
56718;SDS011;42597;40.636;0.278;2024-01-10T06:26:02;4.95;;;2.50;;
56718;SDS011;42597;40.636;0.278;2024-01-10T06:28:28;8.45;;;2.72;;
56718;SDS011;42597;40.636;0.278;2024-01-10T06:30:54;4.50;;;2.22;;
56718;SDS011;42597;40.636;0.278;2024-01-10T06:33:19;4.38;;;2.15;;
56718;SDS011;42597;40.636;0.278;2024-01-10T06:35:45;4.03;;;2.08;;
56718;SDS011;42597;40.636;0.278;2024-01-10T06:38:11;5.28;;;2.50;;
56718;SDS011;42597;40.636;0.278;2024-01-10T06:40:37;4.47;;;2.83;;
56718;SDS011;42597;40.636;0.278;2024-01-10T06:43:05;5.82;;;2.53;;
56718;SDS011;42597;40.636;0.278;2024-01-10T06:45:33;4.90;;;1.92;;
56718;SDS011;42597;40.636;0.278;2024-01-10T06:47:59;3.33;;;2.05;;
56718;SDS011;42597;40.636;0.278;2024-01-10T06:50:25;5.60;;;2.95;;
56718;SDS011;42597;40.636;0.278;2024-01-10T06:52:50;8.75;;;3.38;;
56718;SDS011;42597;40.636;0.278;2024-01-10T06:55:16;4.20;;;1.92;;
56718;SDS011;42597;40.636;0.278;2024-01-10T06:57:43;4.63;;;2.08;;
56718;SDS011;42597;40.636;0.278;2024-01-10T07:00:09;6.07;;;2.35;;
56718;SDS011;42597;40.636;0.278;2024-01-10T07:02:36;4.30;;;2.30;;
56718;SDS011;42597;40.636;0.278;2024-01-10T07:05:03;5.13;;;2.53;;
56718;SDS011;42597;40.636;0.278;2024-01-10T07:07:32;4.13;;;2.42;;
56718;SDS011;42597;40.636;0.278;2024-01-10T07:10:00;4.70;;;2.63;;
56718;SDS011;42597;40.636;0.278;2024-01-10T07:12:26;4.75;;;2.40;;
56718;SDS011;42597;40.636;0.278;2024-01-10T07:14:51;4.90;;;2.67;;
56718;SDS011;42597;40.636;0.278;2024-01-10T07:17:17;3.83;;;2.20;;
56718;SDS011;42597;40.636;0.278;2024-01-10T07:19:43;5.40;;;3.10;;
56718;SDS011;42597;40.636;0.278;2024-01-10T07:22:08;3.28;;;2.22;;
56718;SDS011;42597;40.636;0.278;2024-01-10T07:24:35;7.47;;;1.80;;
56718;SDS011;42597;40.636;0.278;2024-01-10T07:27:01;4.72;;;2.20;;
56718;SDS011;42597;40.636;0.278;2024-01-10T07:29:26;4.60;;;2.05;;
56718;SDS011;42597;40.636;0.278;2024-01-10T07:31:52;4.25;;;2.53;;
56718;SDS011;42597;40.636;0.278;2024-01-10T07:34:18;4.15;;;2.58;;
56718;SDS011;42597;40.636;0.278;2024-01-10T07:36:43;4.28;;;2.65;;
56718;SDS011;42597;40.636;0.278;2024-01-10T07:39:09;9.43;;;2.75;;
56718;SDS011;42597;40.636;0.278;2024-01-10T07:41:35;12.18;;;3.45;;
56718;SDS011;42597;40.636;0.278;2024-01-10T07:44:00;4.57;;;2.17;;
56718;SDS011;42597;40.636;0.278;2024-01-10T07:46:26;6.45;;;2.35;;
56718;SDS011;42597;40.636;0.278;2024-01-10T07:48:54;6.77;;;4.70;;
56718;SDS011;42597;40.636;0.278;2024-01-10T07:51:20;11.98;;;6.70;;
56718;SDS011;42597;40.636;0.278;2024-01-10T07:53:46;10.20;;;6.90;;
56718;SDS011;42597;40.636;0.278;2024-01-10T07:56:12;11.70;;;9.52;;
56718;SDS011;42597;40.636;0.278;2024-01-10T07:58:39;11.07;;;8.07;;
56718;SDS011;42597;40.636;0.278;2024-01-10T08:01:04;9.75;;;6.57;;
56718;SDS011;42597;40.636;0.278;2024-01-10T08:03:30;11.85;;;8.23;;
56718;SDS011;42597;40.636;0.278;2024-01-10T08:05:55;11.10;;;7.57;;
56718;SDS011;42597;40.636;0.278;2024-01-10T08:08:21;14.90;;;11.93;;
56718;SDS011;42597;40.636;0.278;2024-01-10T08:10:47;12.75;;;8.75;;
56718;SDS011;42597;40.636;0.278;2024-01-10T08:13:13;9.50;;;5.15;;
56718;SDS011;42597;40.636;0.278;2024-01-10T08:15:38;5.75;;;3.38;;
56718;SDS011;42597;40.636;0.278;2024-01-10T08:18:04;5.15;;;2.63;;
56718;SDS011;42597;40.636;0.278;2024-01-10T08:20:30;5.82;;;3.50;;
56718;SDS011;42597;40.636;0.278;2024-01-10T08:22:55;7.15;;;3.60;;
56718;SDS011;42597;40.636;0.278;2024-01-10T08:25:22;7.28;;;3.67;;
56718;SDS011;42597;40.636;0.278;2024-01-10T08:27:47;5.07;;;2.95;;
56718;SDS011;42597;40.636;0.278;2024-01-10T08:30:14;6.03;;;3.30;;
56718;SDS011;42597;40.636;0.278;2024-01-10T08:32:40;7.07;;;4.28;;
56718;SDS011;42597;40.636;0.278;2024-01-10T08:35:06;9.43;;;5.03;;
56718;SDS011;42597;40.636;0.278;2024-01-10T08:37:35;5.57;;;3.25;;
56718;SDS011;42597;40.636;0.278;2024-01-10T08:40:00;7.47;;;3.42;;
56718;SDS011;42597;40.636;0.278;2024-01-10T08:42:31;9.60;;;2.67;;
56718;SDS011;42597;40.636;0.278;2024-01-10T08:44:57;10.60;;;3.42;;
56718;SDS011;42597;40.636;0.278;2024-01-10T08:47:23;5.60;;;2.75;;
56718;SDS011;42597;40.636;0.278;2024-01-10T08:49:49;6.68;;;2.97;;
56718;SDS011;42597;40.636;0.278;2024-01-10T08:52:16;7.57;;;2.45;;
56718;SDS011;42597;40.636;0.278;2024-01-10T08:54:41;7.70;;;3.38;;
56718;SDS011;42597;40.636;0.278;2024-01-10T08:57:07;5.60;;;3.78;;
56718;SDS011;42597;40.636;0.278;2024-01-10T08:59:33;8.05;;;3.75;;
56718;SDS011;42597;40.636;0.278;2024-01-10T09:01:59;6.70;;;3.88;;
56718;SDS011;42597;40.636;0.278;2024-01-10T09:04:25;6.35;;;4.13;;
56718;SDS011;42597;40.636;0.278;2024-01-10T09:06:51;7.05;;;4.68;;
56718;SDS011;42597;40.636;0.278;2024-01-10T09:09:16;11.90;;;7.13;;
56718;SDS011;42597;40.636;0.278;2024-01-10T09:11:46;8.25;;;5.43;;
56718;SDS011;42597;40.636;0.278;2024-01-10T09:14:13;7.60;;;4.38;;
56718;SDS011;42597;40.636;0.278;2024-01-10T09:16:39;9.95;;;4.70;;
56718;SDS011;42597;40.636;0.278;2024-01-10T09:19:04;11.52;;;5.05;;
56718;SDS011;42597;40.636;0.278;2024-01-10T09:21:30;14.07;;;7.35;;
56718;SDS011;42597;40.636;0.278;2024-01-10T09:23:56;20.05;;;11.60;;
56718;SDS011;42597;40.636;0.278;2024-01-10T09:26:22;15.05;;;10.10;;
56718;SDS011;42597;40.636;0.278;2024-01-10T09:28:48;18.85;;;10.60;;
56718;SDS011;42597;40.636;0.278;2024-01-10T09:31:13;11.48;;;7.65;;
56718;SDS011;42597;40.636;0.278;2024-01-10T09:33:39;10.32;;;7.38;;
56718;SDS011;42597;40.636;0.278;2024-01-10T09:36:05;11.50;;;7.55;;
56718;SDS011;42597;40.636;0.278;2024-01-10T09:38:35;20.45;;;8.10;;
56718;SDS011;42597;40.636;0.278;2024-01-10T09:41:02;13.93;;;8.13;;
56718;SDS011;42597;40.636;0.278;2024-01-10T09:43:30;11.50;;;8.10;;
56718;SDS011;42597;40.636;0.278;2024-01-10T09:45:57;10.65;;;8.40;;
56718;SDS011;42597;40.636;0.278;2024-01-10T09:48:25;14.18;;;8.75;;
56718;SDS011;42597;40.636;0.278;2024-01-10T09:50:51;18.15;;;8.88;;
56718;SDS011;42597;40.636;0.278;2024-01-10T09:53:21;14.63;;;9.30;;
56718;SDS011;42597;40.636;0.278;2024-01-10T09:55:52;13.85;;;8.88;;
56718;SDS011;42597;40.636;0.278;2024-01-10T09:58:22;12.52;;;8.95;;
56718;SDS011;42597;40.636;0.278;2024-01-10T10:00:48;14.38;;;9.82;;
56718;SDS011;42597;40.636;0.278;2024-01-10T10:03:14;12.73;;;8.55;;
56718;SDS011;42597;40.636;0.278;2024-01-10T10:05:43;11.02;;;8.60;;
56718;SDS011;42597;40.636;0.278;2024-01-10T10:08:12;13.13;;;9.23;;
56718;SDS011;42597;40.636;0.278;2024-01-10T10:10:48;12.95;;;9.63;;
56718;SDS011;42597;40.636;0.278;2024-01-10T10:13:27;13.20;;;9.48;;
56718;SDS011;42597;40.636;0.278;2024-01-10T10:16:12;11.90;;;8.55;;
56718;SDS011;42597;40.636;0.278;2024-01-10T10:18:38;9.98;;;6.25;;
56718;SDS011;42597;40.636;0.278;2024-01-10T10:21:10;10.07;;;8.70;;
56718;SDS011;42597;40.636;0.278;2024-01-10T10:23:37;13.60;;;10.95;;
56718;SDS011;42597;40.636;0.278;2024-01-10T10:26:11;14.02;;;10.57;;
56718;SDS011;42597;40.636;0.278;2024-01-10T10:28:43;16.38;;;12.43;;
56718;SDS011;42597;40.636;0.278;2024-01-10T10:31:09;15.82;;;14.18;;
56718;SDS011;42597;40.636;0.278;2024-01-10T10:33:35;18.95;;;15.63;;
56718;SDS011;42597;40.636;0.278;2024-01-10T10:36:01;13.07;;;11.73;;
56718;SDS011;42597;40.636;0.278;2024-01-10T10:38:28;15.00;;;10.50;;
56718;SDS011;42597;40.636;0.278;2024-01-10T10:40:54;16.90;;;8.85;;
56718;SDS011;42597;40.636;0.278;2024-01-10T10:43:21;11.65;;;9.30;;
56718;SDS011;42597;40.636;0.278;2024-01-10T10:45:47;13.38;;;10.75;;
56718;SDS011;42597;40.636;0.278;2024-01-10T10:48:18;10.35;;;8.50;;
56718;SDS011;42597;40.636;0.278;2024-01-10T10:51:05;10.80;;;8.77;;
56718;SDS011;42597;40.636;0.278;2024-01-10T10:53:41;16.13;;;14.25;;
56718;SDS011;42597;40.636;0.278;2024-01-10T10:56:10;13.35;;;10.02;;
56718;SDS011;42597;40.636;0.278;2024-01-10T10:58:43;13.18;;;9.60;;
56718;SDS011;42597;40.636;0.278;2024-01-10T11:01:11;8.57;;;5.85;;
56718;SDS011;42597;40.636;0.278;2024-01-10T11:03:38;9.77;;;7.72;;
56718;SDS011;42597;40.636;0.278;2024-01-10T11:06:05;10.68;;;8.05;;
56718;SDS011;42597;40.636;0.278;2024-01-10T11:08:36;10.98;;;8.15;;
56718;SDS011;42597;40.636;0.278;2024-01-10T11:11:04;13.55;;;9.98;;
56718;SDS011;42597;40.636;0.278;2024-01-10T11:24:29;11.32;;;8.75;;
56718;SDS011;42597;40.636;0.278;2024-01-10T11:29:37;11.20;;;8.68;;
56718;SDS011;42597;40.636;0.278;2024-01-10T11:32:14;14.57;;;8.93;;
56718;SDS011;42597;40.636;0.278;2024-01-10T11:34:53;10.18;;;8.30;;
56718;SDS011;42597;40.636;0.278;2024-01-10T11:37:20;13.05;;;8.68;;
56718;SDS011;42597;40.636;0.278;2024-01-10T11:39:46;9.60;;;7.55;;
56718;SDS011;42597;40.636;0.278;2024-01-10T11:42:11;10.93;;;9.38;;
56718;SDS011;42597;40.636;0.278;2024-01-10T11:44:47;9.35;;;6.45;;
56718;SDS011;42597;40.636;0.278;2024-01-10T11:47:14;9.27;;;7.50;;
56718;SDS011;42597;40.636;0.278;2024-01-10T11:49:40;10.45;;;9.20;;
56718;SDS011;42597;40.636;0.278;2024-01-10T11:52:18;10.55;;;6.93;;
56718;SDS011;42597;40.636;0.278;2024-01-10T11:54:47;11.18;;;7.00;;
56718;SDS011;42597;40.636;0.278;2024-01-10T11:57:23;10.73;;;7.10;;
56718;SDS011;42597;40.636;0.278;2024-01-10T11:59:54;13.90;;;9.70;;
56718;SDS011;42597;40.636;0.278;2024-01-10T12:02:21;10.40;;;7.15;;
56718;SDS011;42597;40.636;0.278;2024-01-10T12:04:50;9.75;;;7.00;;
56718;SDS011;42597;40.636;0.278;2024-01-10T12:07:16;7.85;;;6.07;;
56718;SDS011;42597;40.636;0.278;2024-01-10T12:09:43;9.70;;;6.60;;
56718;SDS011;42597;40.636;0.278;2024-01-10T12:12:09;9.30;;;7.18;;
56718;SDS011;42597;40.636;0.278;2024-01-10T12:14:36;10.13;;;7.25;;
56718;SDS011;42597;40.636;0.278;2024-01-10T12:17:02;10.05;;;7.22;;
56718;SDS011;42597;40.636;0.278;2024-01-10T12:19:29;12.02;;;6.93;;
56718;SDS011;42597;40.636;0.278;2024-01-10T12:21:55;11.65;;;7.18;;
56718;SDS011;42597;40.636;0.278;2024-01-10T12:24:21;11.10;;;6.53;;
56718;SDS011;42597;40.636;0.278;2024-01-10T12:26:47;14.32;;;7.50;;
56718;SDS011;42597;40.636;0.278;2024-01-10T12:29:17;8.25;;;5.93;;
56718;SDS011;42597;40.636;0.278;2024-01-10T12:31:45;10.23;;;7.50;;
56718;SDS011;42597;40.636;0.278;2024-01-10T12:34:12;11.68;;;7.03;;
56718;SDS011;42597;40.636;0.278;2024-01-10T12:36:37;10.90;;;8.43;;
56718;SDS011;42597;40.636;0.278;2024-01-10T12:39:03;8.15;;;5.72;;
56718;SDS011;42597;40.636;0.278;2024-01-10T12:41:32;10.90;;;7.03;;
56718;SDS011;42597;40.636;0.278;2024-01-10T12:43:59;9.40;;;7.47;;
56718;SDS011;42597;40.636;0.278;2024-01-10T12:46:29;16.75;;;8.65;;
56718;SDS011;42597;40.636;0.278;2024-01-10T12:49:02;10.02;;;7.68;;
56718;SDS011;42597;40.636;0.278;2024-01-10T12:51:30;11.77;;;7.72;;
56718;SDS011;42597;40.636;0.278;2024-01-10T12:53:57;14.10;;;7.47;;
56718;SDS011;42597;40.636;0.278;2024-01-10T12:56:28;10.73;;;7.53;;
56718;SDS011;42597;40.636;0.278;2024-01-10T12:58:54;8.75;;;6.20;;
56718;SDS011;42597;40.636;0.278;2024-01-10T13:01:20;11.20;;;7.43;;
56718;SDS011;42597;40.636;0.278;2024-01-10T13:03:47;11.95;;;6.20;;
56718;SDS011;42597;40.636;0.278;2024-01-10T13:06:14;10.40;;;7.85;;
56718;SDS011;42597;40.636;0.278;2024-01-10T13:08:41;11.35;;;7.85;;
56718;SDS011;42597;40.636;0.278;2024-01-10T13:11:07;11.25;;;7.10;;
56718;SDS011;42597;40.636;0.278;2024-01-10T13:13:37;12.18;;;9.40;;
56718;SDS011;42597;40.636;0.278;2024-01-10T13:16:03;14.73;;;13.23;;
56718;SDS011;42597;40.636;0.278;2024-01-10T13:18:29;12.38;;;9.68;;
56718;SDS011;42597;40.636;0.278;2024-01-10T13:20:55;10.35;;;7.90;;
56718;SDS011;42597;40.636;0.278;2024-01-10T13:23:22;12.63;;;10.75;;
56718;SDS011;42597;40.636;0.278;2024-01-10T13:25:48;10.50;;;8.43;;
56718;SDS011;42597;40.636;0.278;2024-01-10T13:28:14;9.70;;;8.57;;
56718;SDS011;42597;40.636;0.278;2024-01-10T13:30:40;11.43;;;8.27;;
56718;SDS011;42597;40.636;0.278;2024-01-10T13:33:08;10.95;;;7.93;;
56718;SDS011;42597;40.636;0.278;2024-01-10T13:35:34;13.05;;;8.30;;
56718;SDS011;42597;40.636;0.278;2024-01-10T13:38:01;9.98;;;8.25;;
56718;SDS011;42597;40.636;0.278;2024-01-10T13:40:26;11.38;;;7.93;;
56718;SDS011;42597;40.636;0.278;2024-01-10T13:42:52;12.00;;;10.02;;
56718;SDS011;42597;40.636;0.278;2024-01-10T13:45:18;12.50;;;9.38;;
56718;SDS011;42597;40.636;0.278;2024-01-10T13:47:45;12.82;;;9.48;;
56718;SDS011;42597;40.636;0.278;2024-01-10T13:50:11;11.38;;;9.00;;
56718;SDS011;42597;40.636;0.278;2024-01-10T13:52:37;12.20;;;9.80;;
56718;SDS011;42597;40.636;0.278;2024-01-10T13:55:03;14.48;;;9.70;;
56718;SDS011;42597;40.636;0.278;2024-01-10T13:57:30;14.55;;;10.35;;
56718;SDS011;42597;40.636;0.278;2024-01-10T13:59:57;16.17;;;11.10;;
56718;SDS011;42597;40.636;0.278;2024-01-10T14:02:23;13.25;;;10.35;;
56718;SDS011;42597;40.636;0.278;2024-01-10T14:04:49;18.35;;;11.32;;
56718;SDS011;42597;40.636;0.278;2024-01-10T14:07:15;21.15;;;13.07;;
56718;SDS011;42597;40.636;0.278;2024-01-10T14:09:41;17.13;;;11.88;;
56718;SDS011;42597;40.636;0.278;2024-01-10T14:12:06;16.35;;;11.75;;
56718;SDS011;42597;40.636;0.278;2024-01-10T14:14:32;16.63;;;12.70;;
56718;SDS011;42597;40.636;0.278;2024-01-10T14:16:58;18.75;;;14.02;;
56718;SDS011;42597;40.636;0.278;2024-01-10T14:19:23;23.60;;;17.83;;
56718;SDS011;42597;40.636;0.278;2024-01-10T14:21:49;27.33;;;17.10;;
56718;SDS011;42597;40.636;0.278;2024-01-10T14:24:14;23.58;;;13.73;;
56718;SDS011;42597;40.636;0.278;2024-01-10T14:26:41;20.35;;;12.73;;
56718;SDS011;42597;40.636;0.278;2024-01-10T14:29:06;14.52;;;9.73;;
56718;SDS011;42597;40.636;0.278;2024-01-10T14:31:32;11.07;;;8.85;;
56718;SDS011;42597;40.636;0.278;2024-01-10T14:33:58;14.98;;;10.30;;
56718;SDS011;42597;40.636;0.278;2024-01-10T14:36:23;12.68;;;9.60;;
56718;SDS011;42597;40.636;0.278;2024-01-10T14:38:49;13.43;;;9.45;;
56718;SDS011;42597;40.636;0.278;2024-01-10T14:41:16;13.60;;;9.90;;
56718;SDS011;42597;40.636;0.278;2024-01-10T14:43:41;16.08;;;10.55;;
56718;SDS011;42597;40.636;0.278;2024-01-10T14:46:07;15.75;;;10.48;;
56718;SDS011;42597;40.636;0.278;2024-01-10T14:48:32;16.45;;;12.85;;
56718;SDS011;42597;40.636;0.278;2024-01-10T14:50:58;21.17;;;13.25;;